Larimer Hill, Indiana
Current Conditions -  °F | °C
As of 10:53 PM on Sunday 21 Dec 2014 (Local Time) from KHUF Reporting Station
Clear Clear  
Wind Chill: 24°   Ceiling: Unl
Heat Index: 31°   Visibility: 9mi
Dew Point: 27°   Wind: 7mph
Humidity: 85%   Direction: 120°ESE
Pressure: 30.06"   Gusts: NA
Location:  39.5107°N, 87.4772°W
Report Text: KHUF 220353Z 12006KT 9SM CLR M01/M03 A3006 RMK AO2 SLP184 T10061028
Loading
Personal Weather Stations






























Interactive Weather Map New forecast layout! Learn more

10-Day Weather Forecast

Advertisements
Track Severe Weather on mobile